Time;durP1;ratioP1;P1;durP2;ratioP2;P2;SDS_P1;SDS_P2;PMS_P1;PMS_P2;Temp;Humidity;BMP_temperature;BMP_pressure;BME280_temperature;BME280_humidity;BME280_pressure;Samples;Min_cycle;Max_cycle;Signal;HPM_P1;HPM_P2
2023/08/12 00:00:19;;;;;;;13.25;6.50;;;20.30;99.90;;;;;;5034305;28;20025;-53
2023/08/12 00:02:46;;;;;;;12.32;7.07;;;20.20;99.90;;;;;;5034081;28;20068;-50
2023/08/12 00:05:13;;;;;;;16.85;8.27;;;20.20;99.90;;;;;;5034251;28;20025;-52
2023/08/12 00:07:42;;;;;;;12.25;6.75;;;20.20;99.90;;;;;;5034073;28;20038;-51
2023/08/12 00:10:08;;;;;;;;;;;20.10;99.90;;;;;;5034972;28;20036;-52
2023/08/12 00:12:38;;;;;;;13.63;5.85;;;20.10;99.90;;;;;;5034151;28;19909;-53
2023/08/12 00:15:07;;;;;;;14.85;7.90;;;20.10;99.90;;;;;;5034196;28;20026;-52
2023/08/12 00:17:33;;;;;;;14.35;7.18;;;20.20;99.90;;;;;;5033987;28;20073;-53
2023/08/12 00:19:59;;;;;;;11.90;7.25;;;20.20;99.90;;;;;;5034311;28;20036;-53
2023/08/12 00:22:25;;;;;;;13.77;8.63;;;20.20;99.90;;;;;;5033560;28;20037;-53
2023/08/12 00:24:51;;;;;;;14.13;7.03;;;20.20;99.90;;;;;;5033911;28;20040;-52
2023/08/12 00:27:17;;;;;;;14.70;8.57;;;20.20;99.90;;;;;;5033667;28;20033;-51
2023/08/12 00:29:43;;;;;;;15.25;8.40;;;20.20;99.90;;;;;;5033897;28;20398;-50
2023/08/12 00:32:09;;;;;;;18.13;9.50;;;20.20;99.90;;;;;;5015815;28;20082;-53
2023/08/12 00:34:35;;;;;;;17.08;8.48;;;20.20;99.90;;;;;;5033741;28;20036;-54
2023/08/12 00:37:01;;;;;;;19.42;9.00;;;20.20;99.90;;;;;;5015690;28;20307;-53
2023/08/12 00:39:26;;;;;;;16.63;9.48;;;20.10;99.90;;;;;;5015874;28;20025;-54
2023/08/12 00:41:52;;;;;;;15.73;7.80;;;20.10;99.90;;;;;;5015499;28;20482;-53
2023/08/12 00:44:19;;;;;;;16.40;9.15;;;20.10;99.90;;;;;;5033338;28;20517;-53
2023/08/12 00:46:45;;;;;;;19.70;9.48;;;20.10;99.90;;;;;;5015535;28;20033;-52
2023/08/12 00:49:12;;;;;;;15.32;8.52;;;20.10;99.90;;;;;;5015860;28;20033;-52
2023/08/12 00:51:41;;;;;;;17.55;8.50;;;20.10;99.90;;;;;;5016017;28;20041;-52
2023/08/12 00:54:08;;;;;;;15.40;7.97;;;20.10;99.90;;;;;;5033735;28;20123;-50
2023/08/12 00:56:35;;;;;;;14.85;7.80;;;20.20;99.90;;;;;;5015443;28;20037;-51
2023/08/12 00:59:04;;;;;;;14.57;8.15;;;20.10;99.90;;;;;;5033371;28;20036;-49
2023/08/12 01:01:30;;;;;;;12.02;7.70;;;20.10;99.90;;;;;;5033128;28;20060;-51
2023/08/12 01:03:57;;;;;;;16.30;8.02;;;20.10;99.90;;;;;;5015397;28;20030;-54
2023/08/12 01:06:23;;;;;;;15.52;8.73;;;20.00;99.90;;;;;;5015308;28;20029;-51
2023/08/12 01:08:50;;;;;;;11.20;7.10;;;19.90;99.90;;;;;;5015115;28;20048;-52
2023/08/12 01:11:30;;;;;;;14.93;8.25;;;19.90;99.90;;;;;;5032883;28;20454;-50
2023/08/12 01:14:43;;;;;;;17.30;8.68;;;19.90;99.90;;;;;;5015075;28;20065;-53
2023/08/12 01:17:11;;;;;;;14.65;7.40;;;19.90;99.90;;;;;;4951838;28;20130;-54
2023/08/12 01:19:39;;;;;;;16.20;8.93;;;19.90;99.90;;;;;;4920383;29;20070;-52
2023/08/12 01:22:08;;;;;;;18.75;8.10;;;19.90;99.90;;;;;;4974908;28;20049;-53
2023/08/12 01:24:44;;;;;;;16.52;8.30;;;19.80;99.90;;;;;;5014823;28;20402;-49
2023/08/12 01:27:11;;;;;;;13.63;7.90;;;19.90;99.90;;;;;;5014575;28;20029;-54
2023/08/12 01:29:47;;;;;;;14.25;7.97;;;19.90;99.90;;;;;;5015334;28;20509;-50
2023/08/12 01:32:32;;;;;;;14.68;8.27;;;19.80;99.90;;;;;;5014947;28;20104;-49
2023/08/12 01:35:07;;;;;;;18.98;8.55;;;19.90;99.90;;;;;;5015153;28;20482;-51
2023/08/12 01:37:35;;;;;;;14.30;7.90;;;19.90;99.90;;;;;;5032374;28;20513;-50
2023/08/12 01:40:04;;;;;;;17.13;8.77;;;19.90;99.90;;;;;;5014870;28;20474;-53
2023/08/12 01:42:32;;;;;;;15.88;8.63;;;19.90;99.90;;;;;;5032293;28;20029;-49
2023/08/12 01:44:59;;;;;;;15.18;8.73;;;20.00;99.90;;;;;;5014828;28;20037;-49
2023/08/12 01:47:25;;;;;;;14.48;8.50;;;20.00;99.90;;;;;;5032281;28;20045;-54
2023/08/12 01:49:52;;;;;;;15.27;8.52;;;20.00;99.90;;;;;;5015111;28;20481;-53
2023/08/12 01:52:18;;;;;;;15.70;8.60;;;20.00;99.90;;;;;;5014168;28;20033;-53
2023/08/12 01:54:43;;;;;;;19.23;9.10;;;20.00;99.90;;;;;;5013542;28;20060;-52
2023/08/12 01:57:09;;;;;;;17.33;9.35;;;20.00;99.90;;;;;;5014146;28;20095;-53
2023/08/12 01:59:35;;;;;;;15.20;8.82;;;19.90;99.90;;;;;;5014277;28;20458;-52
2023/08/12 02:02:02;;;;;;;16.55;8.32;;;19.90;99.90;;;;;;5014021;28;20037;-52
2023/08/12 02:04:28;;;;;;;16.00;8.45;;;19.90;99.90;;;;;;5031816;28;20466;-50
2023/08/12 02:06:54;;;;;;;19.17;10.00;;;19.90;99.90;;;;;;5013856;28;20096;-52
2023/08/12 02:09:20;;;;;;;15.75;8.60;;;19.90;99.90;;;;;;5031969;28;20091;-51
2023/08/12 02:11:46;;;;;;;16.40;8.73;;;19.80;99.90;;;;;;5031648;28;20040;-53
2023/08/12 02:14:12;;;;;;;18.83;8.88;;;19.90;99.90;;;;;;5013940;28;20033;-50
2023/08/12 02:16:37;;;;;;;16.35;7.93;;;19.90;99.90;;;;;;5013840;28;20045;-48
2023/08/12 02:19:03;;;;;;;15.13;8.50;;;19.80;99.90;;;;;;5013831;28;20030;-53
2023/08/12 02:21:29;;;;;;;20.05;9.02;;;19.80;99.90;;;;;;5013671;28;20025;-53
2023/08/12 02:23:54;;;;;;;15.00;8.68;;;19.80;99.90;;;;;;5013791;28;20091;-54
2023/08/12 02:26:20;;;;;;;15.60;8.25;;;19.80;99.90;;;;;;5013677;28;20057;-54
2023/08/12 02:28:47;;;;;;;15.40;8.98;;;19.80;99.90;;;;;;5013750;28;20039;-54
2023/08/12 02:31:16;;;;;;;16.40;8.35;;;19.80;99.90;;;;;;5013640;28;20021;-51
2023/08/12 02:33:42;;;;;;;13.95;7.68;;;19.80;99.90;;;;;;4997050;28;20087;-54
2023/08/12 02:36:07;;;;;;;14.02;7.85;;;19.90;99.90;;;;;;5013573;28;20025;-54
2023/08/12 02:38:33;;;;;;;14.20;7.43;;;19.80;99.90;;;;;;5031319;28;20389;-52
2023/08/12 02:40:59;;;;;;;15.55;7.63;;;19.90;99.90;;;;;;5031339;28;20421;-53
2023/08/12 02:43:25;;;;;;;15.50;7.38;;;19.90;99.90;;;;;;5031019;28;20079;-51
2023/08/12 02:45:50;;;;;;;15.30;8.27;;;19.90;99.90;;;;;;5013996;28;20247;-50
2023/08/12 02:48:16;;;;;;;18.65;8.70;;;19.90;99.90;;;;;;5014020;28;20030;-54
2023/08/12 02:50:41;;;;;;;11.55;7.50;;;19.90;99.90;;;;;;5013410;28;20041;-53
2023/08/12 02:53:08;;;;;;;14.65;8.43;;;19.90;99.90;;;;;;5013447;28;20041;-53
2023/08/12 02:55:34;;;;;;;16.40;8.20;;;19.80;99.90;;;;;;5013223;28;20034;-53
2023/08/12 02:58:00;;;;;;;14.55;8.23;;;19.80;99.90;;;;;;5013344;28;20079;-55
2023/08/12 03:00:27;;;;;;;16.42;8.88;;;19.90;99.90;;;;;;5013370;28;20371;-54
2023/08/12 03:02:53;;;;;;;16.73;8.88;;;19.90;99.90;;;;;;5030700;28;20026;-51
2023/08/12 03:05:19;;;;;;;16.95;9.15;;;19.90;99.90;;;;;;5013173;28;20180;-53
2023/08/12 03:07:44;;;;;;;18.35;9.60;;;19.90;99.90;;;;;;5012872;28;20112;-52
2023/08/12 03:10:11;;;;;;;20.00;8.80;;;19.90;99.90;;;;;;5013113;28;20037;-50
2023/08/12 03:12:37;;;;;;;15.05;9.05;;;20.00;99.90;;;;;;5012860;28;20401;-52
2023/08/12 03:15:05;;;;;;;18.75;9.35;;;20.00;99.90;;;;;;5013103;28;20033;-50
2023/08/12 03:17:31;;;;;;;21.75;10.60;;;20.00;99.90;;;;;;5012887;28;20112;-51
2023/08/12 03:19:59;;;;;;;17.45;9.93;;;20.00;99.90;;;;;;5030755;28;20124;-54
2023/08/12 03:22:27;;;;;;;17.98;9.40;;;20.00;99.90;;;;;;5012992;28;20251;-54
2023/08/12 03:24:53;;;;;;;22.30;10.75;;;20.00;99.90;;;;;;5013064;28;20075;-54
2023/08/12 03:27:18;;;;;;;18.92;9.25;;;20.00;99.90;;;;;;5030567;28;20563;-54
2023/08/12 03:29:45;;;;;;;22.45;11.52;;;20.00;99.90;;;;;;5030746;28;20207;-55
2023/08/12 03:32:10;;;;;;;20.20;11.18;;;20.00;99.90;;;;;;5030528;28;20037;-53
2023/08/12 03:34:36;;;;;;;19.95;10.93;;;20.00;99.90;;;;;;5030676;28;20516;-52
2023/08/12 03:37:02;;;;;;;20.58;10.93;;;19.90;99.90;;;;;;5012945;28;20528;-52
2023/08/12 03:39:27;;;;;;;22.13;11.35;;;20.00;99.90;;;;;;5030782;28;20488;-52
2023/08/12 03:41:54;;;;;;;21.85;12.15;;;20.00;99.90;;;;;;5013014;28;20065;-54
2023/08/12 03:44:20;;;;;;;22.52;12.00;;;20.00;99.90;;;;;;5013045;28;20350;-54
2023/08/12 03:46:46;;;;;;;25.42;12.98;;;20.00;99.90;;;;;;5013344;28;20136;-52
2023/08/12 03:49:12;;;;;;;27.50;13.25;;;20.00;99.90;;;;;;5030886;28;20104;-54
2023/08/12 03:51:38;;;;;;;21.75;12.23;;;19.90;99.90;;;;;;5012898;28;20037;-54
2023/08/12 03:54:04;;;;;;;27.77;12.88;;;19.90;99.90;;;;;;5030581;28;20029;-54
2023/08/12 03:56:30;;;;;;;24.40;13.27;;;19.90;99.90;;;;;;5030519;28;20034;-54
2023/08/12 03:58:55;;;;;;;21.38;11.45;;;19.90;99.90;;;;;;5012715;28;20048;-54
2023/08/12 04:01:22;;;;;;;24.45;12.65;;;19.90;99.90;;;;;;5012622;28;20421;-54
2023/08/12 04:03:47;;;;;;;26.52;13.38;;;19.90;99.90;;;;;;5030385;28;20040;-54
2023/08/12 04:06:13;;;;;;;25.25;13.25;;;19.90;99.90;;;;;;5012610;28;20129;-54
2023/08/12 04:08:39;;;;;;;25.85;13.45;;;19.90;99.90;;;;;;5030237;28;20044;-52
2023/08/12 04:11:05;;;;;;;28.13;13.43;;;19.90;99.90;;;;;;5012796;28;20038;-54
2023/08/12 04:13:31;;;;;;;30.52;14.13;;;19.80;99.90;;;;;;5030028;28;20034;-54
2023/08/12 04:15:56;;;;;;;23.23;13.18;;;19.80;99.90;;;;;;5012259;28;20091;-53
2023/08/12 04:18:24;;;;;;;28.53;13.57;;;19.80;99.90;;;;;;5014496;28;20033;-52
2023/08/12 04:20:50;;;;;;;25.02;12.80;;;19.80;99.90;;;;;;5034102;28;20052;-49
2023/08/12 04:23:17;;;;;;;27.63;13.18;;;19.70;99.90;;;;;;5015959;28;20074;-51
2023/08/12 04:25:49;;;;;;;23.85;12.43;;;19.70;99.90;;;;;;5034029;28;20025;-51
2023/08/12 04:28:16;;;;;;;23.88;11.93;;;19.70;99.90;;;;;;5016330;28;20111;-50
2023/08/12 04:30:43;;;;;;;23.70;12.07;;;19.80;99.90;;;;;;5016157;28;20029;-52
2023/08/12 04:33:09;;;;;;;26.77;12.65;;;19.70;99.90;;;;;;5033495;28;20021;-48
2023/08/12 04:35:35;;;;;;;26.48;13.32;;;19.70;99.90;;;;;;5015738;28;20394;-48
2023/08/12 04:38:00;;;;;;;21.45;12.25;;;19.70;99.90;;;;;;5015738;28;20033;-48
2023/08/12 04:40:26;;;;;;;24.95;12.05;;;19.70;99.90;;;;;;5015850;28;20030;-49
2023/08/12 04:42:52;;;;;;;23.83;13.45;;;19.70;99.90;;;;;;5033313;28;20386;-48
2023/08/12 04:45:18;;;;;;;23.15;11.98;;;19.70;99.90;;;;;;5015764;28;20029;-48
2023/08/12 04:47:44;;;;;;;25.92;13.07;;;19.70;99.90;;;;;;5016042;28;20032;-52
2023/08/12 04:50:13;;;;;;;26.00;12.95;;;19.70;99.90;;;;;;5015599;28;20037;-49
2023/08/12 04:52:38;;;;;;;22.98;12.10;;;19.70;99.90;;;;;;5015273;28;20043;-48
2023/08/12 04:55:04;;;;;;;20.23;10.90;;;19.70;99.90;;;;;;5015569;28;20029;-48
2023/08/12 04:57:30;;;;;;;24.63;12.05;;;19.70;99.90;;;;;;5015238;28;20390;-48
2023/08/12 04:59:56;;;;;;;23.73;10.60;;;19.70;99.90;;;;;;5015323;28;20036;-49
2023/08/12 05:02:22;;;;;;;22.30;11.70;;;19.80;99.90;;;;;;5015168;28;20491;-48
2023/08/12 05:04:51;;;;;;;20.77;11.27;;;19.80;99.90;;;;;;5015337;28;20036;-48
2023/08/12 05:07:18;;;;;;;20.02;10.27;;;19.90;99.90;;;;;;5015022;28;20489;-50
2023/08/12 05:09:44;;;;;;;23.00;11.60;;;19.90;99.90;;;;;;5015353;28;20095;-50
2023/08/12 05:12:12;;;;;;;23.95;12.20;;;19.90;99.90;;;;;;5014961;28;20025;-48
2023/08/12 05:14:39;;;;;;;20.08;10.35;;;20.00;99.90;;;;;;5015469;28;20493;-50
2023/08/12 05:17:05;;;;;;;19.73;11.32;;;20.00;99.90;;;;;;5014998;28;20065;-50
2023/08/12 05:19:31;;;;;;;18.10;10.57;;;20.00;99.90;;;;;;5015128;28;20401;-48
2023/08/12 05:21:57;;;;;;;17.88;10.52;;;20.00;99.90;;;;;;5015056;28;20124;-51
2023/08/12 05:24:23;;;;;;;17.17;10.00;;;20.00;99.90;;;;;;5034544;28;20056;-49
2023/08/12 05:26:48;;;;;;;20.98;10.20;;;20.00;99.90;;;;;;5032537;28;20390;-49
2023/08/12 05:29:14;;;;;;;15.77;9.45;;;20.00;99.90;;;;;;5032497;28;20123;-48
2023/08/12 05:31:39;;;;;;;19.55;10.30;;;20.00;99.90;;;;;;5032530;28;20576;-49
2023/08/12 05:34:05;;;;;;;20.52;9.77;;;20.00;99.90;;;;;;5032522;28;20437;-52
2023/08/12 05:36:31;;;;;;;17.42;10.07;;;20.10;99.90;;;;;;5032334;28;20044;-49
2023/08/12 05:38:56;;;;;;;16.75;8.93;;;20.20;99.90;;;;;;5032472;28;20022;-49
2023/08/12 05:41:22;;;;;;;18.88;9.60;;;20.20;99.90;;;;;;5032177;28;20028;-53
2023/08/12 05:43:48;;;;;;;16.15;9.35;;;20.20;99.90;;;;;;5032442;28;20485;-50
2023/08/12 05:46:14;;;;;;;16.15;10.07;;;20.10;99.90;;;;;;5032165;28;20033;-53
2023/08/12 05:48:39;;;;;;;19.33;10.05;;;20.20;99.90;;;;;;5032311;28;20033;-53
2023/08/12 05:51:05;;;;;;;22.55;11.57;;;20.20;99.90;;;;;;5032216;28;20033;-52
2023/08/12 05:53:32;;;;;;;16.48;8.93;;;20.20;99.90;;;;;;5031891;28;20048;-51
2023/08/12 05:55:57;;;;;;;20.70;12.60;;;20.20;99.90;;;;;;5032458;28;20073;-53
2023/08/12 05:58:23;;;;;;;17.50;9.27;;;20.20;99.90;;;;;;5014342;28;20067;-51
2023/08/12 06:00:48;;;;;;;28.30;15.60;;;20.20;99.90;;;;;;5032150;28;20057;-51
2023/08/12 06:03:14;;;;;;;19.02;11.52;;;20.20;99.90;;;;;;5031940;28;20116;-50
2023/08/12 06:05:41;;;;;;;17.95;9.20;;;20.20;99.90;;;;;;5014261;28;20197;-50
2023/08/12 06:08:06;;;;;;;29.65;15.93;;;20.20;99.90;;;;;;5031837;28;20516;-52
2023/08/12 06:10:33;;;;;;;15.43;10.02;;;20.20;99.90;;;;;;5031738;28;20025;-53
2023/08/12 06:12:59;;;;;;;17.83;8.43;;;20.20;99.90;;;;;;5031589;28;20067;-54
2023/08/12 06:15:24;;;;;;;18.95;8.38;;;20.30;99.90;;;;;;5031786;28;20036;-54
2023/08/12 06:17:50;;;;;;;16.67;8.63;;;20.30;99.90;;;;;;5031797;28;20053;-53
2023/08/12 06:20:16;;;;;;;13.35;8.27;;;20.30;99.90;;;;;;5013931;28;20033;-52
2023/08/12 06:22:42;;;;;;;13.75;8.90;;;20.30;99.90;;;;;;5031585;28;20052;-54
2023/08/12 06:25:07;;;;;;;15.75;8.38;;;20.20;99.90;;;;;;5031625;28;20497;-52
2023/08/12 06:27:33;;;;;;;17.63;8.38;;;20.20;99.90;;;;;;5031532;28;20033;-52
2023/08/12 06:29:59;;;;;;;16.30;9.93;;;20.20;99.90;;;;;;5031575;28;20033;-50
2023/08/12 06:32:24;;;;;;;13.35;7.95;;;20.20;99.90;;;;;;5031430;28;20033;-51
2023/08/12 06:34:50;;;;;;;13.77;7.88;;;20.20;99.90;;;;;;5031455;28;20033;-51
2023/08/12 06:37:15;;;;;;;14.23;7.90;;;20.20;99.90;;;;;;5031201;28;20159;-51
2023/08/12 06:39:41;;;;;;;12.75;7.25;;;20.20;99.90;;;;;;5031019;28;20057;-52
2023/08/12 06:42:07;;;;;;;12.10;7.70;;;20.20;99.90;;;;;;5013117;28;20042;-49
2023/08/12 06:44:32;;;;;;;12.57;7.28;;;20.20;99.90;;;;;;5013527;28;20025;-49
2023/08/12 06:46:58;;;;;;;13.43;7.95;;;20.10;99.90;;;;;;5031173;28;20022;-51
2023/08/12 06:49:23;;;;;;;13.45;7.45;;;20.20;99.90;;;;;;5031185;28;20429;-54
2023/08/12 06:51:49;;;;;;;12.13;7.10;;;20.20;99.90;;;;;;5030951;28;20033;-50
2023/08/12 06:54:15;;;;;;;15.00;9.32;;;20.20;99.90;;;;;;5030870;28;20033;-50
2023/08/12 06:56:40;;;;;;;14.05;7.10;;;20.20;99.90;;;;;;5030929;28;20036;-50
2023/08/12 06:59:06;;;;;;;12.88;6.75;;;20.20;99.90;;;;;;5031003;28;20033;-51
2023/08/12 07:01:32;;;;;;;15.95;8.65;;;20.20;99.90;;;;;;5030829;28;20025;-51
2023/08/12 07:03:57;;;;;;;16.40;8.77;;;20.10;99.90;;;;;;5030837;28;20175;-54
2023/08/12 07:06:23;;;;;;;17.65;9.35;;;20.20;99.90;;;;;;5012918;28;20038;-50
2023/08/12 07:08:49;;;;;;;11.23;6.82;;;20.20;99.90;;;;;;5031200;28;20033;-50
2023/08/12 07:11:14;;;;;;;12.02;7.10;;;20.20;99.90;;;;;;5031041;28;20040;-51
2023/08/12 07:13:40;;;;;;;13.50;7.85;;;20.20;99.90;;;;;;4996731;28;20036;-52
2023/08/12 07:16:05;;;;;;;15.32;9.40;;;20.20;99.90;;;;;;5030729;28;20029;-52
2023/08/12 07:18:31;;;;;;;12.43;7.75;;;20.30;99.90;;;;;;5030829;28;20034;-50
2023/08/12 07:20:58;;;;;;;10.82;6.63;;;20.30;99.90;;;;;;5030680;28;20048;-50
2023/08/12 07:23:24;;;;;;;10.43;6.40;;;20.30;99.90;;;;;;5030265;28;20117;-54
2023/08/12 07:25:49;;;;;;;12.82;9.02;;;20.30;99.90;;;;;;5030509;28;20034;-50
2023/08/12 07:28:15;;;;;;;16.25;9.95;;;20.30;99.90;;;;;;5030747;28;20022;-50
2023/08/12 07:30:41;;;;;;;14.45;8.98;;;20.40;99.90;;;;;;5030643;28;20512;-53
2023/08/12 07:33:07;;;;;;;23.45;12.93;;;20.40;99.90;;;;;;5012861;28;20037;-51
2023/08/12 07:35:33;;;;;;;15.60;9.38;;;20.40;99.90;;;;;;5030609;28;20104;-53
2023/08/12 07:37:58;;;;;;;7.57;5.72;;;20.40;99.90;;;;;;5030563;28;20022;-48
2023/08/12 07:40:24;;;;;;;9.00;5.50;;;20.40;99.90;;;;;;5030483;28;20500;-51
2023/08/12 07:42:50;;;;;;;12.93;8.68;;;20.40;99.90;;;;;;5030397;28;20032;-50
2023/08/12 07:45:15;;;;;;;11.05;6.85;;;20.50;99.90;;;;;;5030701;28;20068;-49
2023/08/12 07:47:41;;;;;;;11.90;7.55;;;20.50;99.90;;;;;;5030613;28;20029;-54
2023/08/12 07:50:07;;;;;;;11.23;6.78;;;20.50;99.90;;;;;;5030562;28;20390;-54
2023/08/12 07:52:33;;;;;;;14.13;7.32;;;20.60;99.90;;;;;;5030893;28;20029;-54
2023/08/12 07:54:58;;;;;;;11.98;7.80;;;20.60;99.90;;;;;;5034654;28;20025;-52
2023/08/12 07:57:24;;;;;;;7.93;5.45;;;20.60;99.90;;;;;;5034432;28;20449;-54
2023/08/12 07:59:50;;;;;;;11.73;6.82;;;20.70;99.90;;;;;;5034567;28;20108;-54
2023/08/12 08:02:16;;;;;;;8.35;5.60;;;20.70;99.90;;;;;;5034293;28;20037;-51
2023/08/12 08:04:42;;;;;;;10.77;6.90;;;20.80;99.90;;;;;;5034472;28;20025;-54
2023/08/12 08:07:08;;;;;;;7.47;4.70;;;20.80;99.90;;;;;;5034036;28;20470;-53
2023/08/12 08:09:34;;;;;;;6.90;4.53;;;20.80;99.90;;;;;;5034810;28;20037;-51
2023/08/12 08:12:00;;;;;;;10.20;6.10;;;20.80;99.90;;;;;;5034357;28;20029;-53
2023/08/12 08:14:27;;;;;;;11.57;5.88;;;20.90;99.90;;;;;;5034298;28;20124;-54
2023/08/12 08:16:53;;;;;;;8.90;4.60;;;20.90;99.90;;;;;;5034511;28;20480;-49
2023/08/12 08:19:19;;;;;;;7.18;4.20;;;20.90;99.90;;;;;;5034209;28;20056;-54
2023/08/12 08:21:45;;;;;;;9.98;5.60;;;20.90;99.90;;;;;;5016192;28;20475;-54
2023/08/12 08:24:12;;;;;;;7.50;4.53;;;20.90;99.90;;;;;;5016374;28;20164;-53
2023/08/12 08:26:40;;;;;;;14.57;6.88;;;20.90;99.90;;;;;;5033841;28;20029;-54
2023/08/12 08:29:06;;;;;;;6.80;4.17;;;21.00;99.90;;;;;;5034063;28;20029;-53
2023/08/12 08:31:32;;;;;;;6.82;3.88;;;21.00;99.90;;;;;;5033936;28;20036;-53
2023/08/12 08:33:58;;;;;;;9.13;5.95;;;20.90;99.90;;;;;;5033640;28;20076;-54
2023/08/12 08:36:24;;;;;;;8.18;4.80;;;20.90;99.90;;;;;;5033472;28;20087;-50
2023/08/12 08:38:50;;;;;;;5.88;4.03;;;20.90;99.90;;;;;;5033635;28;20033;-54
2023/08/12 08:41:17;;;;;;;7.13;4.15;;;20.90;99.90;;;;;;5033795;28;20025;-53
2023/08/12 08:43:46;;;;;;;8.40;5.28;;;21.00;99.90;;;;;;5033387;28;20049;-53
2023/08/12 08:46:15;;;;;;;8.57;5.20;;;20.90;99.90;;;;;;5033383;28;20029;-53
2023/08/12 08:48:42;;;;;;;8.13;4.35;;;21.10;99.90;;;;;;5015602;28;20038;-51
2023/08/12 08:51:10;;;;;;;7.43;4.78;;;21.10;99.90;;;;;;5033413;28;20560;-51
2023/08/12 08:53:39;;;;;;;6.77;3.63;;;21.10;99.90;;;;;;5033351;28;20037;-49
2023/08/12 08:56:11;;;;;;;7.80;4.10;;;21.10;99.90;;;;;;5033331;28;20033;-49
2023/08/12 08:58:38;;;;;;;7.53;3.88;;;21.20;99.90;;;;;;5033374;28;20037;-49
2023/08/12 09:01:06;;;;;;;7.28;4.68;;;21.20;99.90;;;;;;5033478;28;20057;-54
2023/08/12 09:03:34;;;;;;;10.43;4.20;;;21.20;99.90;;;;;;5032435;28;20033;-54
2023/08/12 09:06:00;;;;;;;7.72;4.20;;;21.20;99.90;;;;;;5033027;28;20084;-53
2023/08/12 09:08:27;;;;;;;5.03;3.15;;;21.10;99.90;;;;;;5033145;28;20037;-53
2023/08/12 09:10:54;;;;;;;6.30;2.95;;;21.20;99.90;;;;;;5032990;28;20108;-53
2023/08/12 09:13:19;;;;;;;7.63;4.43;;;21.10;99.90;;;;;;5033485;28;20557;-53
2023/08/12 09:15:45;;;;;;;4.40;2.90;;;21.10;99.90;;;;;;5032702;28;20120;-54
2023/08/12 09:18:11;;;;;;;4.03;2.97;;;21.10;99.90;;;;;;5032788;28;20114;-52
2023/08/12 09:20:37;;;;;;;5.30;2.85;;;21.10;99.90;;;;;;5015445;28;20068;-50
2023/08/12 09:23:03;;;;;;;4.72;2.90;;;21.10;99.90;;;;;;5032667;28;20080;-54
2023/08/12 09:25:29;;;;;;;5.60;3.10;;;21.10;99.90;;;;;;5032822;28;20056;-54
2023/08/12 09:27:59;;;;;;;5.60;3.17;;;21.10;99.90;;;;;;5032683;28;20445;-53
2023/08/12 09:30:27;;;;;;;6.68;3.42;;;21.00;99.90;;;;;;5033385;28;20099;-54
2023/08/12 09:33:01;;;;;;;7.07;4.47;;;21.10;99.90;;;;;;5032396;28;20033;-51
2023/08/12 09:35:40;;;;;;;7.30;3.63;;;21.10;99.90;;;;;;5032505;28;20039;-54
2023/08/12 09:38:10;;;;;;;5.95;3.58;;;21.00;99.90;;;;;;5032543;28;20041;-51
2023/08/12 09:40:36;;;;;;;6.47;3.60;;;21.00;99.90;;;;;;5032519;28;20029;-50
2023/08/12 09:43:03;;;;;;;9.57;5.43;;;21.00;99.90;;;;;;5014348;28;20082;-52
2023/08/12 09:45:30;;;;;;;7.82;3.63;;;21.00;99.90;;;;;;5032371;28;20486;-50
2023/08/12 09:47:56;;;;;;;6.75;3.78;;;20.90;99.90;;;;;;5032142;28;20018;-49
2023/08/12 09:50:24;;;;;;;5.95;3.47;;;21.00;99.90;;;;;;5032389;28;20029;-50
2023/08/12 09:52:51;;;;;;;7.70;4.00;;;20.90;99.90;;;;;;5032050;28;20423;-51
2023/08/12 09:55:17;;;;;;;8.20;5.32;;;20.80;99.90;;;;;;5032096;28;20096;-50
2023/08/12 09:57:44;;;;;;;10.13;5.18;;;20.80;99.90;;;;;;5032021;28;20398;-53
2023/08/12 10:00:16;;;;;;;10.35;6.25;;;20.80;99.90;;;;;;5032177;28;20466;-53
2023/08/12 10:02:43;;;;;;;13.15;7.40;;;20.80;99.90;;;;;;5014087;28;20056;-50
2023/08/12 10:05:12;;;;;;;12.65;6.65;;;20.80;99.90;;;;;;5032037;28;20022;-51
2023/08/12 10:07:38;;;;;;;;;;;20.90;99.90;;;;;;5032297;28;20045;-53
2023/08/12 10:10:05;;;;;;;10.35;5.13;;;21.00;99.90;;;;;;5031957;28;20369;-52
2023/08/12 10:12:31;;;;;;;6.50;4.00;;;21.10;99.90;;;;;;5031603;28;20040;-55
2023/08/12 10:14:58;;;;;;;9.57;4.78;;;21.20;99.90;;;;;;5013473;28;20099;-53
2023/08/12 10:17:24;;;;;;;6.00;3.17;;;21.20;99.90;;;;;;5031830;28;20116;-51
2023/08/12 10:19:55;;;;;;;11.10;5.03;;;21.20;99.90;;;;;;5031609;28;20087;-52
2023/08/12 10:22:21;;;;;;;7.22;4.10;;;21.20;99.90;;;;;;5031468;28;20489;-53
2023/08/12 10:24:49;;;;;;;6.70;4.22;;;21.30;99.90;;;;;;5031578;28;20046;-50
2023/08/12 10:27:17;;;;;;;6.55;3.60;;;21.40;99.90;;;;;;5031453;28;20033;-55
2023/08/12 10:29:43;;;;;;;2.85;1.90;;;21.40;99.90;;;;;;5031446;28;20034;-50
2023/08/12 10:32:09;;;;;;;6.35;3.00;;;21.40;99.90;;;;;;5031298;28;20116;-50
2023/08/12 10:34:35;;;;;;;9.32;3.15;;;21.50;99.90;;;;;;5031278;28;20183;-52
2023/08/12 10:37:04;;;;;;;3.58;2.03;;;21.50;99.90;;;;;;5031128;28;20033;-49
2023/08/12 10:39:33;;;;;;;7.97;4.43;;;21.60;99.90;;;;;;5031359;28;20037;-52
2023/08/12 10:41:59;;;;;;;4.35;2.30;;;21.60;99.90;;;;;;5031236;28;20038;-48
2023/08/12 10:44:40;;;;;;;5.18;2.17;;;21.50;99.90;;;;;;5031146;28;20120;-49
2023/08/12 10:47:10;;;;;;;2.58;1.30;;;21.50;99.90;;;;;;5031212;28;20025;-53
2023/08/12 10:49:43;;;;;;;3.80;1.75;;;21.40;99.90;;;;;;5031493;28;20025;-53
2023/08/12 10:52:32;;;;;;;2.88;1.45;;;21.40;99.90;;;;;;5030976;28;20034;-50
2023/08/12 10:55:17;;;;;;;5.30;2.60;;;21.30;99.90;;;;;;5031525;28;20029;-52
2023/08/12 10:57:43;;;;;;;9.63;5.18;;;21.30;99.90;;;;;;5030987;28;20037;-53
2023/08/12 11:00:13;;;;;;;4.75;2.58;;;21.30;99.90;;;;;;5031049;28;20165;-53
2023/08/12 11:02:40;;;;;;;2.72;1.42;;;21.30;99.90;;;;;;5030874;28;20026;-54
2023/08/12 11:05:13;;;;;;;6.95;3.80;;;21.30;99.90;;;;;;5031029;28;20037;-52
2023/08/12 11:07:56;;;;;;;4.03;1.88;;;21.20;99.90;;;;;;5030715;28;20040;-53
2023/08/12 11:10:25;;;;;;;1.98;1.38;;;21.20;99.90;;;;;;5030880;28;20038;-52
2023/08/12 11:12:55;;;;;;;4.70;2.83;;;21.30;99.90;;;;;;5030725;28;20029;-53
2023/08/12 11:15:29;;;;;;;4.80;1.52;;;21.40;99.90;;;;;;5030818;28;20033;-51
2023/08/12 11:17:55;;;;;;;2.40;1.30;;;21.40;99.90;;;;;;5030897;28;20072;-51
2023/08/12 11:20:21;;;;;;;3.10;1.98;;;21.50;99.90;;;;;;5030676;28;20071;-53
2023/08/12 11:22:47;;;;;;;7.43;4.03;;;21.60;99.90;;;;;;5030567;28;20036;-53
2023/08/12 11:25:13;;;;;;;5.80;2.88;;;21.80;99.90;;;;;;5030836;28;20026;-52
2023/08/12 11:27:44;;;;;;;4.28;2.28;;;21.80;99.90;;;;;;5030348;28;20363;-54
2023/08/12 11:30:15;;;;;;;3.80;2.22;;;21.90;99.90;;;;;;5030673;28;20089;-51
2023/08/12 11:32:49;;;;;;;2.90;1.73;;;21.90;99.90;;;;;;5030370;28;20405;-49
2023/08/12 11:35:16;;;;;;;4.13;1.63;;;21.90;99.90;;;;;;5030610;28;20180;-52
2023/08/12 11:37:45;;;;;;;3.65;1.73;;;22.00;99.90;;;;;;5030817;28;20079;-54
2023/08/12 11:40:14;;;;;;;8.77;4.22;;;22.10;99.90;;;;;;5030615;28;20041;-54
2023/08/12 11:42:41;;;;;;;7.18;3.22;;;22.10;99.90;;;;;;5030435;28;20036;-53
2023/08/12 11:45:08;;;;;;;6.07;3.35;;;22.10;99.90;;;;;;5030467;28;20037;-51
2023/08/12 11:47:37;;;;;;;3.75;2.30;;;22.20;99.90;;;;;;5030809;28;20465;-50
2023/08/12 11:50:11;;;;;;;4.10;1.88;;;22.10;99.90;;;;;;5030364;28;20030;-54
2023/08/12 11:52:37;;;;;;;3.45;1.70;;;21.90;99.90;;;;;;5030311;28;20470;-54
2023/08/12 11:55:05;;;;;;;2.40;1.42;;;21.70;99.90;;;;;;5030830;28;20072;-54
2023/08/12 11:57:34;;;;;;;2.88;1.67;;;21.50;99.90;;;;;;5030349;28;20049;-51
2023/08/12 12:00:00;;;;;;;6.35;3.17;;;21.40;99.90;;;;;;5030352;28;20444;-53
2023/08/12 12:02:26;;;;;;;3.53;2.10;;;21.20;99.90;;;;;;5030031;28;20034;-50
2023/08/12 12:04:52;;;;;;;4.15;2.65;;;21.10;99.90;;;;;;5030498;28;20037;-50
2023/08/12 12:07:25;;;;;;;2.78;1.98;;;21.10;99.90;;;;;;5030221;28;20033;-53
2023/08/12 12:09:52;;;;;;;4.65;2.67;;;21.00;99.90;;;;;;5030305;28;20501;-51
2023/08/12 12:12:21;;;;;;;4.28;2.60;;;20.90;99.90;;;;;;5029973;28;20040;-52
2023/08/12 12:14:47;;;;;;;5.75;2.88;;;20.90;99.90;;;;;;5030294;28;20457;-52
2023/08/12 12:17:15;;;;;;;5.78;3.90;;;20.80;99.90;;;;;;5030301;28;20438;-51
2023/08/12 12:19:41;;;;;;;5.75;3.75;;;20.80;99.90;;;;;;5030203;28;20030;-51
2023/08/12 12:22:07;;;;;;;9.25;4.95;;;20.80;99.90;;;;;;5030183;28;20116;-52
2023/08/12 12:24:44;;;;;;;5.60;3.90;;;20.70;99.90;;;;;;5030454;28;20160;-52
2023/08/12 12:27:11;;;;;;;7.37;3.63;;;20.60;99.90;;;;;;5030345;28;20475;-49
2023/08/12 12:29:36;;;;;;;4.95;3.13;;;20.60;99.90;;;;;;5012754;28;20095;-51
2023/08/12 12:32:02;;;;;;;9.55;5.28;;;20.60;99.90;;;;;;5030826;28;20633;-50
2023/08/12 12:34:28;;;;;;;7.88;3.97;;;20.50;99.90;;;;;;5030581;28;20130;-49
2023/08/12 12:36:53;;;;;;;7.70;4.95;;;20.50;99.90;;;;;;5030280;28;20205;-49